Aroma, Indiana
Current Conditions -  °F | °C
As of 9:55 PM on Friday 21 Nov 2014 (Local Time) from KTYQ Reporting Station
Scattered Clouds Scattered Clouds  
Wind Chill: 19°   Ceiling: Unl
Heat Index: 28°   Visibility: 10mi
Dew Point: 12°   Wind: 9mph
Humidity: 50%   Direction: 150°SSE
Pressure: 30.35"   Gusts: NA
Location:  40.1832°N, 85.9359°W
Report Text: KTYQ 220255Z AUTO 15008KT 10SM SCT050 M02/M11 A3035 RMK AO2 T10211112
Loading
Personal Weather Stations






























Interactive Weather Map New forecast layout! Learn more

10-Day Weather Forecast

Advertisements
Track Severe Weather on mobile